sensor_id;sensor_type;location;lat;lon;timestamp;temperature;humidity
7163;DHT22;3623;47.098;15.446;2024-02-26T00:02:24;3.40;99.90
7163;DHT22;3623;47.098;15.446;2024-02-26T00:04:51;3.40;99.90
7163;DHT22;3623;47.098;15.446;2024-02-26T00:07:20;3.30;99.90
7163;DHT22;3623;47.098;15.446;2024-02-26T00:09:46;3.20;99.90
7163;DHT22;3623;47.098;15.446;2024-02-26T00:12:14;3.20;99.90
7163;DHT22;3623;47.098;15.446;2024-02-26T00:14:42;3.10;99.90
7163;DHT22;3623;47.098;15.446;2024-02-26T00:17:12;3.00;99.90
7163;DHT22;3623;47.098;15.446;2024-02-26T00:19:39;3.00;99.90
7163;DHT22;3623;47.098;15.446;2024-02-26T00:22:06;3.00;99.90
7163;DHT22;3623;47.098;15.446;2024-02-26T00:24:33;3.10;99.90
7163;DHT22;3623;47.098;15.446;2024-02-26T00:27:06;2.80;99.90
7163;DHT22;3623;47.098;15.446;2024-02-26T00:29:33;2.80;99.90
7163;DHT22;3623;47.098;15.446;2024-02-26T00:32:01;2.90;99.90
7163;DHT22;3623;47.098;15.446;2024-02-26T00:34:29;2.90;99.90
7163;DHT22;3623;47.098;15.446;2024-02-26T00:36:57;3.20;99.90
7163;DHT22;3623;47.098;15.446;2024-02-26T00:39:24;3.00;99.90
7163;DHT22;3623;47.098;15.446;2024-02-26T00:41:52;3.10;99.90
7163;DHT22;3623;47.098;15.446;2024-02-26T00:44:19;3.30;99.90
7163;DHT22;3623;47.098;15.446;2024-02-26T00:46:48;3.50;99.90
7163;DHT22;3623;47.098;15.446;2024-02-26T00:49:17;3.60;99.90
7163;DHT22;3623;47.098;15.446;2024-02-26T00:51:44;3.60;99.90
7163;DHT22;3623;47.098;15.446;2024-02-26T00:54:11;3.50;99.90
7163;DHT22;3623;47.098;15.446;2024-02-26T00:56:41;3.60;99.90
7163;DHT22;3623;47.098;15.446;2024-02-26T00:59:08;3.70;99.90
7163;DHT22;3623;47.098;15.446;2024-02-26T01:01:35;3.60;99.90
7163;DHT22;3623;47.098;15.446;2024-02-26T01:04:02;3.60;99.90
7163;DHT22;3623;47.098;15.446;2024-02-26T01:06:31;3.40;99.90
7163;DHT22;3623;47.098;15.446;2024-02-26T01:08:58;3.30;99.90
7163;DHT22;3623;47.098;15.446;2024-02-26T01:11:26;3.20;99.90
7163;DHT22;3623;47.098;15.446;2024-02-26T01:13:53;3.10;99.90
7163;DHT22;3623;47.098;15.446;2024-02-26T01:16:22;3.00;99.90
7163;DHT22;3623;47.098;15.446;2024-02-26T01:18:51;3.00;99.90
7163;DHT22;3623;47.098;15.446;2024-02-26T01:21:19;3.20;99.90
7163;DHT22;3623;47.098;15.446;2024-02-26T01:23:47;3.30;99.90
7163;DHT22;3623;47.098;15.446;2024-02-26T01:26:14;3.60;99.90
7163;DHT22;3623;47.098;15.446;2024-02-26T01:28:43;3.20;99.90
7163;DHT22;3623;47.098;15.446;2024-02-26T01:31:10;3.00;99.90
7163;DHT22;3623;47.098;15.446;2024-02-26T01:33:36;2.80;99.90
7163;DHT22;3623;47.098;15.446;2024-02-26T01:36:04;2.80;99.90
7163;DHT22;3623;47.098;15.446;2024-02-26T01:38:37;2.80;99.90
7163;DHT22;3623;47.098;15.446;2024-02-26T01:41:05;3.00;99.90
7163;DHT22;3623;47.098;15.446;2024-02-26T01:43:32;2.60;99.90
7163;DHT22;3623;47.098;15.446;2024-02-26T01:46:00;2.50;99.90
7163;DHT22;3623;47.098;15.446;2024-02-26T01:48:28;2.90;99.90
7163;DHT22;3623;47.098;15.446;2024-02-26T01:50:55;2.80;99.90
7163;DHT22;3623;47.098;15.446;2024-02-26T01:53:23;2.60;99.90
7163;DHT22;3623;47.098;15.446;2024-02-26T01:55:50;2.80;99.90
7163;DHT22;3623;47.098;15.446;2024-02-26T01:58:39;2.50;99.90
7163;DHT22;3623;47.098;15.446;2024-02-26T02:01:06;2.40;99.90
7163;DHT22;3623;47.098;15.446;2024-02-26T02:03:36;2.70;99.90
7163;DHT22;3623;47.098;15.446;2024-02-26T02:06:04;2.50;99.90
7163;DHT22;3623;47.098;15.446;2024-02-26T02:08:32;2.50;99.90
7163;DHT22;3623;47.098;15.446;2024-02-26T02:11:01;2.60;99.90
7163;DHT22;3623;47.098;15.446;2024-02-26T02:13:28;2.70;99.90
7163;DHT22;3623;47.098;15.446;2024-02-26T02:15:57;2.80;99.90
7163;DHT22;3623;47.098;15.446;2024-02-26T02:18:25;2.90;99.90
7163;DHT22;3623;47.098;15.446;2024-02-26T02:20:55;2.90;99.90
7163;DHT22;3623;47.098;15.446;2024-02-26T02:23:25;2.80;99.90
7163;DHT22;3623;47.098;15.446;2024-02-26T02:25:52;2.90;99.90
7163;DHT22;3623;47.098;15.446;2024-02-26T02:28:24;2.90;99.90
7163;DHT22;3623;47.098;15.446;2024-02-26T02:30:52;3.00;99.90
7163;DHT22;3623;47.098;15.446;2024-02-26T02:33:21;3.10;99.90
7163;DHT22;3623;47.098;15.446;2024-02-26T02:35:48;3.20;99.90
7163;DHT22;3623;47.098;15.446;2024-02-26T02:38:20;3.20;99.90
7163;DHT22;3623;47.098;15.446;2024-02-26T02:40:49;2.90;99.90
7163;DHT22;3623;47.098;15.446;2024-02-26T02:43:16;3.10;99.90
7163;DHT22;3623;47.098;15.446;2024-02-26T02:45:44;2.90;99.90
7163;DHT22;3623;47.098;15.446;2024-02-26T02:48:12;2.90;99.90
7163;DHT22;3623;47.098;15.446;2024-02-26T02:50:39;2.70;99.90
7163;DHT22;3623;47.098;15.446;2024-02-26T02:53:06;2.40;99.90
7163;DHT22;3623;47.098;15.446;2024-02-26T02:55:35;2.10;99.90
7163;DHT22;3623;47.098;15.446;2024-02-26T02:58:04;2.00;99.90
7163;DHT22;3623;47.098;15.446;2024-02-26T03:00:31;2.10;99.90
7163;DHT22;3623;47.098;15.446;2024-02-26T03:02:58;2.30;99.90
7163;DHT22;3623;47.098;15.446;2024-02-26T03:05:25;2.40;99.90
7163;DHT22;3623;47.098;15.446;2024-02-26T03:07:56;2.00;99.90
7163;DHT22;3623;47.098;15.446;2024-02-26T03:10:23;2.00;99.90
7163;DHT22;3623;47.098;15.446;2024-02-26T03:12:52;1.80;99.90
7163;DHT22;3623;47.098;15.446;2024-02-26T03:15:19;1.90;99.90
7163;DHT22;3623;47.098;15.446;2024-02-26T03:17:48;2.30;99.90
7163;DHT22;3623;47.098;15.446;2024-02-26T03:20:15;2.60;99.90
7163;DHT22;3623;47.098;15.446;2024-02-26T03:22:45;3.00;99.90
7163;DHT22;3623;47.098;15.446;2024-02-26T03:25:12;3.20;99.90
7163;DHT22;3623;47.098;15.446;2024-02-26T03:27:40;3.40;99.90
7163;DHT22;3623;47.098;15.446;2024-02-26T03:30:10;3.40;99.90
7163;DHT22;3623;47.098;15.446;2024-02-26T03:32:37;3.50;99.90
7163;DHT22;3623;47.098;15.446;2024-02-26T03:35:05;3.50;99.90
7163;DHT22;3623;47.098;15.446;2024-02-26T03:37:36;3.50;99.90
7163;DHT22;3623;47.098;15.446;2024-02-26T03:40:04;3.70;99.90
7163;DHT22;3623;47.098;15.446;2024-02-26T03:42:31;3.80;99.90
7163;DHT22;3623;47.098;15.446;2024-02-26T03:44:58;3.70;99.90
7163;DHT22;3623;47.098;15.446;2024-02-26T03:47:27;3.60;99.90
7163;DHT22;3623;47.098;15.446;2024-02-26T03:49:54;3.50;99.90
7163;DHT22;3623;47.098;15.446;2024-02-26T03:52:22;3.40;99.90
7163;DHT22;3623;47.098;15.446;2024-02-26T03:54:49;3.20;99.90
7163;DHT22;3623;47.098;15.446;2024-02-26T03:57:22;2.90;99.90
7163;DHT22;3623;47.098;15.446;2024-02-26T03:59:50;2.50;99.90
7163;DHT22;3623;47.098;15.446;2024-02-26T04:02:17;2.50;99.90
7163;DHT22;3623;47.098;15.446;2024-02-26T04:04:46;2.10;99.90
7163;DHT22;3623;47.098;15.446;2024-02-26T04:07:27;1.80;99.90
7163;DHT22;3623;47.098;15.446;2024-02-26T04:09:54;1.90;99.90
7163;DHT22;3623;47.098;15.446;2024-02-26T04:12:21;2.20;99.90
7163;DHT22;3623;47.098;15.446;2024-02-26T04:14:48;2.20;99.90
7163;DHT22;3623;47.098;15.446;2024-02-26T04:17:15;2.30;99.90
7163;DHT22;3623;47.098;15.446;2024-02-26T04:19:43;2.80;99.90
7163;DHT22;3623;47.098;15.446;2024-02-26T04:22:11;2.70;99.90
7163;DHT22;3623;47.098;15.446;2024-02-26T04:24:38;2.70;99.90
7163;DHT22;3623;47.098;15.446;2024-02-26T04:27:05;2.90;99.90
7163;DHT22;3623;47.098;15.446;2024-02-26T04:29:33;2.90;99.90
7163;DHT22;3623;47.098;15.446;2024-02-26T04:32:00;3.10;99.90
7163;DHT22;3623;47.098;15.446;2024-02-26T04:34:27;3.10;99.90
7163;DHT22;3623;47.098;15.446;2024-02-26T04:36:54;3.10;99.90
7163;DHT22;3623;47.098;15.446;2024-02-26T04:39:23;3.10;99.90
7163;DHT22;3623;47.098;15.446;2024-02-26T04:41:50;3.10;99.90
7163;DHT22;3623;47.098;15.446;2024-02-26T04:44:17;3.10;99.90
7163;DHT22;3623;47.098;15.446;2024-02-26T04:46:46;3.30;99.90
7163;DHT22;3623;47.098;15.446;2024-02-26T04:49:13;3.10;99.90
7163;DHT22;3623;47.098;15.446;2024-02-26T04:51:40;3.10;99.90
7163;DHT22;3623;47.098;15.446;2024-02-26T04:54:08;3.10;99.90
7163;DHT22;3623;47.098;15.446;2024-02-26T04:56:37;3.10;99.90
7163;DHT22;3623;47.098;15.446;2024-02-26T04:59:04;3.10;99.90
7163;DHT22;3623;47.098;15.446;2024-02-26T05:01:31;3.00;99.90
7163;DHT22;3623;47.098;15.446;2024-02-26T05:03:59;2.90;99.90
7163;DHT22;3623;47.098;15.446;2024-02-26T05:06:26;2.60;99.90
7163;DHT22;3623;47.098;15.446;2024-02-26T05:08:53;2.20;99.90
7163;DHT22;3623;47.098;15.446;2024-02-26T05:11:20;2.00;99.90
7163;DHT22;3623;47.098;15.446;2024-02-26T05:13:49;1.60;99.90
7163;DHT22;3623;47.098;15.446;2024-02-26T05:16:16;1.40;99.90
7163;DHT22;3623;47.098;15.446;2024-02-26T05:18:47;1.50;99.90
7163;DHT22;3623;47.098;15.446;2024-02-26T05:21:14;1.40;99.90
7163;DHT22;3623;47.098;15.446;2024-02-26T05:23:41;1.10;99.90
7163;DHT22;3623;47.098;15.446;2024-02-26T05:26:09;1.20;99.90
7163;DHT22;3623;47.098;15.446;2024-02-26T05:28:44;1.50;99.90
7163;DHT22;3623;47.098;15.446;2024-02-26T05:31:14;1.30;99.90
7163;DHT22;3623;47.098;15.446;2024-02-26T05:33:41;1.50;99.90
7163;DHT22;3623;47.098;15.446;2024-02-26T05:36:08;1.90;99.90
7163;DHT22;3623;47.098;15.446;2024-02-26T05:38:39;2.20;99.90
7163;DHT22;3623;47.098;15.446;2024-02-26T05:41:06;2.20;99.90
7163;DHT22;3623;47.098;15.446;2024-02-26T05:43:34;2.30;99.90
7163;DHT22;3623;47.098;15.446;2024-02-26T05:46:01;2.80;99.90
7163;DHT22;3623;47.098;15.446;2024-02-26T05:48:36;2.50;99.90
7163;DHT22;3623;47.098;15.446;2024-02-26T05:51:04;2.60;99.90
7163;DHT22;3623;47.098;15.446;2024-02-26T05:53:32;2.60;99.90
7163;DHT22;3623;47.098;15.446;2024-02-26T05:56:00;2.70;99.90
7163;DHT22;3623;47.098;15.446;2024-02-26T05:58:28;2.70;99.90
7163;DHT22;3623;47.098;15.446;2024-02-26T06:00:55;2.20;99.90
7163;DHT22;3623;47.098;15.446;2024-02-26T06:03:22;2.20;99.90
7163;DHT22;3623;47.098;15.446;2024-02-26T06:05:51;1.90;99.90
7163;DHT22;3623;47.098;15.446;2024-02-26T06:08:18;1.60;99.90
7163;DHT22;3623;47.098;15.446;2024-02-26T06:10:45;1.60;99.90
7163;DHT22;3623;47.098;15.446;2024-02-26T06:13:12;1.70;99.90
7163;DHT22;3623;47.098;15.446;2024-02-26T06:15:40;2.00;99.90
7163;DHT22;3623;47.098;15.446;2024-02-26T06:18:27;2.20;99.90
7163;DHT22;3623;47.098;15.446;2024-02-26T06:20:56;2.10;99.90
7163;DHT22;3623;47.098;15.446;2024-02-26T06:23:23;2.20;99.90
7163;DHT22;3623;47.098;15.446;2024-02-26T06:25:50;2.10;99.90
7163;DHT22;3623;47.098;15.446;2024-02-26T06:28:23;1.90;99.90
7163;DHT22;3623;47.098;15.446;2024-02-26T06:30:51;1.80;99.90
7163;DHT22;3623;47.098;15.446;2024-02-26T06:33:18;1.70;99.90
7163;DHT22;3623;47.098;15.446;2024-02-26T06:35:45;1.70;99.90
7163;DHT22;3623;47.098;15.446;2024-02-26T06:38:14;1.70;99.90
7163;DHT22;3623;47.098;15.446;2024-02-26T06:40:41;2.00;99.90
7163;DHT22;3623;47.098;15.446;2024-02-26T06:43:08;1.80;99.90
7163;DHT22;3623;47.098;15.446;2024-02-26T06:45:36;2.20;99.90
7163;DHT22;3623;47.098;15.446;2024-02-26T06:48:23;2.00;99.90
7163;DHT22;3623;47.098;15.446;2024-02-26T06:50:50;2.20;99.90
7163;DHT22;3623;47.098;15.446;2024-02-26T06:53:19;2.40;99.90
7163;DHT22;3623;47.098;15.446;2024-02-26T06:55:46;2.20;99.90
7163;DHT22;3623;47.098;15.446;2024-02-26T06:58:18;2.20;99.90
7163;DHT22;3623;47.098;15.446;2024-02-26T07:00:45;2.30;99.90
7163;DHT22;3623;47.098;15.446;2024-02-26T07:03:13;2.50;99.90
7163;DHT22;3623;47.098;15.446;2024-02-26T07:05:40;2.70;99.90
7163;DHT22;3623;47.098;15.446;2024-02-26T07:08:10;2.80;99.90
7163;DHT22;3623;47.098;15.446;2024-02-26T07:10:40;2.80;99.90
7163;DHT22;3623;47.098;15.446;2024-02-26T07:13:07;2.90;99.90
7163;DHT22;3623;47.098;15.446;2024-02-26T07:15:34;3.10;99.90
7163;DHT22;3623;47.098;15.446;2024-02-26T07:18:06;2.70;99.90
7163;DHT22;3623;47.098;15.446;2024-02-26T07:20:33;2.60;99.90
7163;DHT22;3623;47.098;15.446;2024-02-26T07:23:00;2.70;99.90
7163;DHT22;3623;47.098;15.446;2024-02-26T07:25:28;2.80;99.90
7163;DHT22;3623;47.098;15.446;2024-02-26T07:27:57;2.80;99.90
7163;DHT22;3623;47.098;15.446;2024-02-26T07:30:24;2.60;99.90
7163;DHT22;3623;47.098;15.446;2024-02-26T07:32:51;2.50;99.90
7163;DHT22;3623;47.098;15.446;2024-02-26T07:35:18;2.50;99.90
7163;DHT22;3623;47.098;15.446;2024-02-26T07:37:48;2.60;99.90
7163;DHT22;3623;47.098;15.446;2024-02-26T07:40:15;2.70;99.90
7163;DHT22;3623;47.098;15.446;2024-02-26T07:42:43;2.80;99.90
7163;DHT22;3623;47.098;15.446;2024-02-26T07:45:11;3.00;99.90
7163;DHT22;3623;47.098;15.446;2024-02-26T07:47:47;3.10;99.90
7163;DHT22;3623;47.098;15.446;2024-02-26T07:50:14;3.10;99.90
7163;DHT22;3623;47.098;15.446;2024-02-26T07:52:41;3.20;99.90
7163;DHT22;3623;47.098;15.446;2024-02-26T07:55:09;3.40;99.90
7163;DHT22;3623;47.098;15.446;2024-02-26T07:57:44;3.40;99.90
7163;DHT22;3623;47.098;15.446;2024-02-26T08:00:14;3.60;99.90
7163;DHT22;3623;47.098;15.446;2024-02-26T08:02:42;3.80;99.90
7163;DHT22;3623;47.098;15.446;2024-02-26T08:05:10;3.80;99.90
7163;DHT22;3623;47.098;15.446;2024-02-26T08:07:39;3.80;99.90
7163;DHT22;3623;47.098;15.446;2024-02-26T08:10:07;3.90;99.90
7163;DHT22;3623;47.098;15.446;2024-02-26T08:12:34;4.10;99.90
7163;DHT22;3623;47.098;15.446;2024-02-26T08:15:01;4.00;99.90
7163;DHT22;3623;47.098;15.446;2024-02-26T08:17:38;4.10;99.90
7163;DHT22;3623;47.098;15.446;2024-02-26T08:20:06;4.00;99.90
7163;DHT22;3623;47.098;15.446;2024-02-26T08:22:34;4.10;99.90
7163;DHT22;3623;47.098;15.446;2024-02-26T08:25:01;4.20;99.90
7163;DHT22;3623;47.098;15.446;2024-02-26T08:27:33;4.40;99.90
7163;DHT22;3623;47.098;15.446;2024-02-26T08:30:00;4.60;99.90
7163;DHT22;3623;47.098;15.446;2024-02-26T08:32:27;4.70;99.90
7163;DHT22;3623;47.098;15.446;2024-02-26T08:34:56;4.60;99.90
7163;DHT22;3623;47.098;15.446;2024-02-26T08:37:23;4.70;99.90
7163;DHT22;3623;47.098;15.446;2024-02-26T08:39:50;4.80;99.90
7163;DHT22;3623;47.098;15.446;2024-02-26T08:42:17;5.00;99.90
7163;DHT22;3623;47.098;15.446;2024-02-26T08:44:45;5.10;99.90
7163;DHT22;3623;47.098;15.446;2024-02-26T08:47:18;5.40;99.90
7163;DHT22;3623;47.098;15.446;2024-02-26T08:49:45;5.70;99.90
7163;DHT22;3623;47.098;15.446;2024-02-26T08:52:13;5.90;99.90
7163;DHT22;3623;47.098;15.446;2024-02-26T08:54:41;6.10;99.90
7163;DHT22;3623;47.098;15.446;2024-02-26T08:57:09;6.30;99.90
7163;DHT22;3623;47.098;15.446;2024-02-26T08:59:36;6.40;99.90
7163;DHT22;3623;47.098;15.446;2024-02-26T09:02:03;6.60;99.90
7163;DHT22;3623;47.098;15.446;2024-02-26T09:04:31;6.80;99.90
7163;DHT22;3623;47.098;15.446;2024-02-26T09:06:59;6.90;99.90
7163;DHT22;3623;47.098;15.446;2024-02-26T09:09:27;7.10;99.90
7163;DHT22;3623;47.098;15.446;2024-02-26T09:11:54;7.70;99.90
7163;DHT22;3623;47.098;15.446;2024-02-26T09:14:22;8.10;99.90
7163;DHT22;3623;47.098;15.446;2024-02-26T09:16:49;8.20;99.90
7163;DHT22;3623;47.098;15.446;2024-02-26T09:19:17;8.40;99.90
7163;DHT22;3623;47.098;15.446;2024-02-26T09:21:44;8.50;99.90
7163;DHT22;3623;47.098;15.446;2024-02-26T09:24:12;8.40;99.90
7163;DHT22;3623;47.098;15.446;2024-02-26T09:26:40;8.20;99.90
7163;DHT22;3623;47.098;15.446;2024-02-26T09:29:08;8.20;99.90
7163;DHT22;3623;47.098;15.446;2024-02-26T09:31:35;8.40;99.90
7163;DHT22;3623;47.098;15.446;2024-02-26T09:34:02;8.60;99.90
7163;DHT22;3623;47.098;15.446;2024-02-26T09:36:30;8.50;99.90
7163;DHT22;3623;47.098;15.446;2024-02-26T09:38:57;8.60;99.90
7163;DHT22;3623;47.098;15.446;2024-02-26T09:41:28;9.00;99.90
7163;DHT22;3623;47.098;15.446;2024-02-26T09:43:57;9.30;99.90
7163;DHT22;3623;47.098;15.446;2024-02-26T09:46:25;9.30;99.90
7163;DHT22;3623;47.098;15.446;2024-02-26T09:48:53;9.10;99.90
7163;DHT22;3623;47.098;15.446;2024-02-26T09:51:22;9.20;99.90
7163;DHT22;3623;47.098;15.446;2024-02-26T09:53:52;9.40;99.90
7163;DHT22;3623;47.098;15.446;2024-02-26T09:56:19;9.30;99.90
7163;DHT22;3623;47.098;15.446;2024-02-26T09:58:47;9.10;99.90
7163;DHT22;3623;47.098;15.446;2024-02-26T10:01:20;9.00;99.90
7163;DHT22;3623;47.098;15.446;2024-02-26T10:03:54;9.00;99.90
7163;DHT22;3623;47.098;15.446;2024-02-26T10:06:22;9.30;99.90
7163;DHT22;3623;47.098;15.446;2024-02-26T10:08:53;9.60;99.90
7163;DHT22;3623;47.098;15.446;2024-02-26T10:11:22;10.00;99.90
7163;DHT22;3623;47.098;15.446;2024-02-26T10:13:50;10.10;99.90
7163;DHT22;3623;47.098;15.446;2024-02-26T10:16:18;10.00;99.90
7163;DHT22;3623;47.098;15.446;2024-02-26T10:18:51;10.40;99.90
7163;DHT22;3623;47.098;15.446;2024-02-26T10:21:19;10.60;99.90
7163;DHT22;3623;47.098;15.446;2024-02-26T10:23:46;10.90;99.90
7163;DHT22;3623;47.098;15.446;2024-02-26T10:26:15;10.80;99.90
7163;DHT22;3623;47.098;15.446;2024-02-26T10:28:45;10.80;99.90
7163;DHT22;3623;47.098;15.446;2024-02-26T10:31:14;10.80;99.90
7163;DHT22;3623;47.098;15.446;2024-02-26T10:33:43;11.00;99.90
7163;DHT22;3623;47.098;15.446;2024-02-26T10:36:12;11.50;99.90
7163;DHT22;3623;47.098;15.446;2024-02-26T10:38:46;12.20;99.90
7163;DHT22;3623;47.098;15.446;2024-02-26T10:41:13;12.30;99.90
7163;DHT22;3623;47.098;15.446;2024-02-26T10:43:42;12.60;99.90
7163;DHT22;3623;47.098;15.446;2024-02-26T10:46:09;12.90;99.90
7163;DHT22;3623;47.098;15.446;2024-02-26T10:48:49;13.10;99.90
7163;DHT22;3623;47.098;15.446;2024-02-26T10:51:21;13.40;98.90
7163;DHT22;3623;47.098;15.446;2024-02-26T10:53:55;13.70;97.50
7163;DHT22;3623;47.098;15.446;2024-02-26T10:56:25;13.90;96.70
7163;DHT22;3623;47.098;15.446;2024-02-26T10:58:53;14.00;96.00
7163;DHT22;3623;47.098;15.446;2024-02-26T11:01:22;14.80;95.80
7163;DHT22;3623;47.098;15.446;2024-02-26T11:03:53;15.00;94.90
7163;DHT22;3623;47.098;15.446;2024-02-26T11:06:49;14.30;95.60
7163;DHT22;3623;47.098;15.446;2024-02-26T11:09:17;13.50;94.00
7163;DHT22;3623;47.098;15.446;2024-02-26T11:11:46;13.60;94.70
7163;DHT22;3623;47.098;15.446;2024-02-26T11:14:14;13.90;95.20
7163;DHT22;3623;47.098;15.446;2024-02-26T11:16:43;13.70;94.60
7163;DHT22;3623;47.098;15.446;2024-02-26T11:19:11;13.80;95.10
7163;DHT22;3623;47.098;15.446;2024-02-26T11:21:39;14.00;94.50
7163;DHT22;3623;47.098;15.446;2024-02-26T11:24:12;13.80;94.50
7163;DHT22;3623;47.098;15.446;2024-02-26T11:26:45;13.10;93.20
7163;DHT22;3623;47.098;15.446;2024-02-26T11:29:17;12.10;93.40
7163;DHT22;3623;47.098;15.446;2024-02-26T11:31:46;12.10;94.90
7163;DHT22;3623;47.098;15.446;2024-02-26T11:34:14;12.20;95.20
7163;DHT22;3623;47.098;15.446;2024-02-26T11:36:41;12.70;95.70
7163;DHT22;3623;47.098;15.446;2024-02-26T11:39:11;13.10;94.90
7163;DHT22;3623;47.098;15.446;2024-02-26T11:41:40;13.00;94.90
7163;DHT22;3623;47.098;15.446;2024-02-26T11:44:08;13.30;95.10
7163;DHT22;3623;47.098;15.446;2024-02-26T11:46:39;13.70;94.40
7163;DHT22;3623;47.098;15.446;2024-02-26T11:49:31;13.40;94.90
7163;DHT22;3623;47.098;15.446;2024-02-26T11:51:58;13.40;95.00
7163;DHT22;3623;47.098;15.446;2024-02-26T11:54:44;13.80;94.00
7163;DHT22;3623;47.098;15.446;2024-02-26T11:57:37;13.90;93.50
7163;DHT22;3623;47.098;15.446;2024-02-26T12:00:12;14.10;93.60
7163;DHT22;3623;47.098;15.446;2024-02-26T12:02:45;14.10;93.80
7163;DHT22;3623;47.098;15.446;2024-02-26T12:05:14;13.50;93.70
7163;DHT22;3623;47.098;15.446;2024-02-26T12:07:47;13.40;94.20
7163;DHT22;3623;47.098;15.446;2024-02-26T12:10:22;13.80;94.40
7163;DHT22;3623;47.098;15.446;2024-02-26T12:12:54;13.60;94.20
7163;DHT22;3623;47.098;15.446;2024-02-26T12:15:23;13.30;94.60
7163;DHT22;3623;47.098;15.446;2024-02-26T12:17:53;12.60;94.90
7163;DHT22;3623;47.098;15.446;2024-02-26T12:20:20;12.10;94.90
7163;DHT22;3623;47.098;15.446;2024-02-26T12:22:50;12.30;96.20
7163;DHT22;3623;47.098;15.446;2024-02-26T12:25:24;12.10;95.20
7163;DHT22;3623;47.098;15.446;2024-02-26T12:27:53;12.20;95.90
7163;DHT22;3623;47.098;15.446;2024-02-26T12:30:20;12.30;96.00
7163;DHT22;3623;47.098;15.446;2024-02-26T12:32:48;12.70;95.70
7163;DHT22;3623;47.098;15.446;2024-02-26T12:35:16;12.70;96.40
7163;DHT22;3623;47.098;15.446;2024-02-26T12:37:46;12.70;95.30
7163;DHT22;3623;47.098;15.446;2024-02-26T12:40:14;12.60;95.60
7163;DHT22;3623;47.098;15.446;2024-02-26T12:42:43;12.90;96.20
7163;DHT22;3623;47.098;15.446;2024-02-26T12:45:11;13.40;95.30
7163;DHT22;3623;47.098;15.446;2024-02-26T12:47:40;14.60;95.50
7163;DHT22;3623;47.098;15.446;2024-02-26T12:50:08;16.10;93.00
7163;DHT22;3623;47.098;15.446;2024-02-26T12:52:39;17.30;92.20
7163;DHT22;3623;47.098;15.446;2024-02-26T12:55:07;17.80;90.30
7163;DHT22;3623;47.098;15.446;2024-02-26T12:57:50;18.40;90.50
7163;DHT22;3623;47.098;15.446;2024-02-26T13:00:19;17.70;86.80
7163;DHT22;3623;47.098;15.446;2024-02-26T13:02:48;17.60;88.90
7163;DHT22;3623;47.098;15.446;2024-02-26T13:05:18;17.50;87.70
7163;DHT22;3623;47.098;15.446;2024-02-26T13:07:54;17.20;89.00
7163;DHT22;3623;47.098;15.446;2024-02-26T13:10:21;17.90;86.10
7163;DHT22;3623;47.098;15.446;2024-02-26T13:12:50;18.20;85.80
7163;DHT22;3623;47.098;15.446;2024-02-26T13:15:18;18.50;85.50
7163;DHT22;3623;47.098;15.446;2024-02-26T13:17:50;18.30;83.80
7163;DHT22;3623;47.098;15.446;2024-02-26T13:20:26;18.30;85.80
7163;DHT22;3623;47.098;15.446;2024-02-26T13:23:00;18.20;84.70
7163;DHT22;3623;47.098;15.446;2024-02-26T13:25:27;17.50;83.40
7163;DHT22;3623;47.098;15.446;2024-02-26T13:28:06;18.10;83.50
7163;DHT22;3623;47.098;15.446;2024-02-26T13:30:34;18.20;82.90
7163;DHT22;3623;47.098;15.446;2024-02-26T13:33:10;17.70;84.80
7163;DHT22;3623;47.098;15.446;2024-02-26T13:35:37;17.70;84.90
7163;DHT22;3623;47.098;15.446;2024-02-26T13:38:11;17.30;84.80
7163;DHT22;3623;47.098;15.446;2024-02-26T13:40:39;16.50;85.50
7163;DHT22;3623;47.098;15.446;2024-02-26T13:43:07;15.40;87.20
7163;DHT22;3623;47.098;15.446;2024-02-26T13:45:36;14.40;88.40
7163;DHT22;3623;47.098;15.446;2024-02-26T13:48:06;13.90;90.20
7163;DHT22;3623;47.098;15.446;2024-02-26T13:50:36;13.90;90.20
7163;DHT22;3623;47.098;15.446;2024-02-26T13:53:06;13.70;90.90
7163;DHT22;3623;47.098;15.446;2024-02-26T13:55:34;13.70;91.20
7163;DHT22;3623;47.098;15.446;2024-02-26T13:58:02;13.90;91.10
7163;DHT22;3623;47.098;15.446;2024-02-26T14:00:31;13.50;92.30
7163;DHT22;3623;47.098;15.446;2024-02-26T14:02:59;13.40;91.70
7163;DHT22;3623;47.098;15.446;2024-02-26T14:05:27;13.20;91.10
7163;DHT22;3623;47.098;15.446;2024-02-26T14:08:12;13.10;91.60
7163;DHT22;3623;47.098;15.446;2024-02-26T14:10:40;12.80;91.10
7163;DHT22;3623;47.098;15.446;2024-02-26T14:13:07;12.70;91.30
7163;DHT22;3623;47.098;15.446;2024-02-26T14:15:36;12.40;91.50
7163;DHT22;3623;47.098;15.446;2024-02-26T14:18:07;12.30;91.90
7163;DHT22;3623;47.098;15.446;2024-02-26T14:20:34;12.30;91.80
7163;DHT22;3623;47.098;15.446;2024-02-26T14:23:01;12.40;92.30
7163;DHT22;3623;47.098;15.446;2024-02-26T14:25:28;12.40;92.40
7163;DHT22;3623;47.098;15.446;2024-02-26T14:27:56;12.30;92.40
7163;DHT22;3623;47.098;15.446;2024-02-26T14:30:25;12.20;92.20
7163;DHT22;3623;47.098;15.446;2024-02-26T14:32:54;12.30;93.50
7163;DHT22;3623;47.098;15.446;2024-02-26T14:35:21;12.40;92.70
7163;DHT22;3623;47.098;15.446;2024-02-26T14:37:55;12.40;92.50
7163;DHT22;3623;47.098;15.446;2024-02-26T14:40:26;12.40;92.10
7163;DHT22;3623;47.098;15.446;2024-02-26T14:42:53;12.50;92.20
7163;DHT22;3623;47.098;15.446;2024-02-26T14:45:22;12.30;91.70
7163;DHT22;3623;47.098;15.446;2024-02-26T14:47:58;12.40;92.00
7163;DHT22;3623;47.098;15.446;2024-02-26T14:50:25;12.30;92.70
7163;DHT22;3623;47.098;15.446;2024-02-26T14:52:52;12.30;93.30
7163;DHT22;3623;47.098;15.446;2024-02-26T14:55:20;12.20;93.40
7163;DHT22;3623;47.098;15.446;2024-02-26T14:57:55;12.20;92.90
7163;DHT22;3623;47.098;15.446;2024-02-26T15:00:22;12.10;93.10
7163;DHT22;3623;47.098;15.446;2024-02-26T15:02:49;12.10;93.20
7163;DHT22;3623;47.098;15.446;2024-02-26T15:05:19;12.10;92.90
7163;DHT22;3623;47.098;15.446;2024-02-26T15:07:53;12.00;92.60
7163;DHT22;3623;47.098;15.446;2024-02-26T15:10:20;11.90;92.70
7163;DHT22;3623;47.098;15.446;2024-02-26T15:12:47;11.80;92.70
7163;DHT22;3623;47.098;15.446;2024-02-26T15:15:14;11.70;92.30
7163;DHT22;3623;47.098;15.446;2024-02-26T15:17:43;11.40;93.10
7163;DHT22;3623;47.098;15.446;2024-02-26T15:20:11;11.30;92.80
7163;DHT22;3623;47.098;15.446;2024-02-26T15:22:39;11.10;93.30
7163;DHT22;3623;47.098;15.446;2024-02-26T15:25:07;11.00;93.20
7163;DHT22;3623;47.098;15.446;2024-02-26T15:27:41;11.00;93.10
7163;DHT22;3623;47.098;15.446;2024-02-26T15:30:10;10.90;93.10
7163;DHT22;3623;47.098;15.446;2024-02-26T15:32:37;10.90;93.00
7163;DHT22;3623;47.098;15.446;2024-02-26T15:35:05;10.80;93.30
7163;DHT22;3623;47.098;15.446;2024-02-26T15:37:33;10.70;93.20
7163;DHT22;3623;47.098;15.446;2024-02-26T15:40:02;10.80;93.50
7163;DHT22;3623;47.098;15.446;2024-02-26T15:42:32;10.70;93.30
7163;DHT22;3623;47.098;15.446;2024-02-26T15:44:59;10.60;93.60
7163;DHT22;3623;47.098;15.446;2024-02-26T15:47:37;10.60;93.40
7163;DHT22;3623;47.098;15.446;2024-02-26T15:50:05;10.70;93.50
7163;DHT22;3623;47.098;15.446;2024-02-26T15:52:32;10.70;93.70
7163;DHT22;3623;47.098;15.446;2024-02-26T15:54:59;10.50;93.90
7163;DHT22;3623;47.098;15.446;2024-02-26T15:57:42;10.40;94.10
7163;DHT22;3623;47.098;15.446;2024-02-26T16:00:10;10.50;94.80
7163;DHT22;3623;47.098;15.446;2024-02-26T16:02:38;10.40;94.10
7163;DHT22;3623;47.098;15.446;2024-02-26T16:05:07;10.20;94.30
7163;DHT22;3623;47.098;15.446;2024-02-26T16:07:40;10.30;94.20